sensor_id;sensor_type;location;lat;lon;timestamp;pressure;altitude;pressure_sealevel;temperature;humidity
49515;BME280;35415;47.870;16.058;2023-04-20T00:01:07;97360.13;;;6.48;100.00
49515;BME280;35415;47.870;16.058;2023-04-20T00:03:38;97266.06;;;5.77;100.00
49515;BME280;35415;47.870;16.058;2023-04-20T00:06:07;97292.25;;;6.03;100.00
49515;BME280;35415;47.870;16.058;2023-04-20T00:08:34;97299.00;;;6.06;100.00
49515;BME280;35415;47.870;16.058;2023-04-20T00:11:01;97323.97;;;6.28;100.00
49515;BME280;35415;47.870;16.058;2023-04-20T00:13:29;97341.22;;;6.38;100.00
49515;BME280;35415;47.870;16.058;2023-04-20T00:15:56;97254.09;;;5.80;100.00
49515;BME280;35415;47.870;16.058;2023-04-20T00:18:25;97342.28;;;6.37;100.00
49515;BME280;35415;47.870;16.058;2023-04-20T00:20:54;97297.38;;;6.05;100.00
49515;BME280;35415;47.870;16.058;2023-04-20T00:23:21;97337.56;;;6.27;100.00
49515;BME280;35415;47.870;16.058;2023-04-20T00:25:49;97309.75;;;6.11;100.00
49515;BME280;35415;47.870;16.058;2023-04-20T00:28:16;97329.66;;;6.32;100.00
49515;BME280;35415;47.870;16.058;2023-04-20T00:30:43;97332.22;;;6.27;100.00
49515;BME280;35415;47.870;16.058;2023-04-20T00:33:11;97327.13;;;6.25;100.00
49515;BME280;35415;47.870;16.058;2023-04-20T00:35:38;97316.69;;;6.24;100.00
49515;BME280;35415;47.870;16.058;2023-04-20T00:38:07;97315.41;;;6.26;100.00
49515;BME280;35415;47.870;16.058;2023-04-20T00:40:34;97312.41;;;6.23;100.00
49515;BME280;35415;47.870;16.058;2023-04-20T00:43:09;97302.31;;;6.13;100.00
49515;BME280;35415;47.870;16.058;2023-04-20T00:45:39;97322.03;;;6.24;100.00
49515;BME280;35415;47.870;16.058;2023-04-20T00:48:07;97325.50;;;6.24;100.00
49515;BME280;35415;47.870;16.058;2023-04-20T00:50:37;97328.19;;;6.24;100.00
49515;BME280;35415;47.870;16.058;2023-04-20T00:53:04;97281.47;;;5.98;100.00
49515;BME280;35415;47.870;16.058;2023-04-20T00:55:36;97316.13;;;6.22;100.00
49515;BME280;35415;47.870;16.058;2023-04-20T00:58:03;97300.13;;;6.10;100.00
49515;BME280;35415;47.870;16.058;2023-04-20T01:00:34;97287.94;;;6.02;100.00
49515;BME280;35415;47.870;16.058;2023-04-20T01:03:01;97316.56;;;6.19;100.00
49515;BME280;35415;47.870;16.058;2023-04-20T01:05:29;97310.91;;;6.15;100.00
49515;BME280;35415;47.870;16.058;2023-04-20T01:07:56;97312.50;;;6.16;100.00
49515;BME280;35415;47.870;16.058;2023-04-20T01:10:26;97314.94;;;6.18;100.00
49515;BME280;35415;47.870;16.058;2023-04-20T01:12:55;97266.06;;;5.89;100.00
49515;BME280;35415;47.870;16.058;2023-04-20T01:15:23;97307.41;;;6.15;100.00
49515;BME280;35415;47.870;16.058;2023-04-20T01:17:50;97266.06;;;5.89;100.00
49515;BME280;35415;47.870;16.058;2023-04-20T01:20:18;97300.69;;;6.12;100.00
49515;BME280;35415;47.870;16.058;2023-04-20T01:22:51;97292.94;;;6.11;100.00
49515;BME280;35415;47.870;16.058;2023-04-20T01:25:20;97265.03;;;5.90;100.00
49515;BME280;35415;47.870;16.058;2023-04-20T01:27:47;97296.97;;;6.13;100.00
49515;BME280;35415;47.870;16.058;2023-04-20T01:30:14;97304.19;;;6.13;100.00
49515;BME280;35415;47.870;16.058;2023-04-20T01:34:38;97286.91;;;6.03;100.00
49515;BME280;35415;47.870;16.058;2023-04-20T01:37:07;97226.31;;;5.64;100.00
49515;BME280;35415;47.870;16.058;2023-04-20T01:39:35;97310.81;;;6.10;100.00
49515;BME280;35415;47.870;16.058;2023-04-20T01:42:07;97190.41;;;5.43;100.00
49515;BME280;35415;47.870;16.058;2023-04-20T01:44:38;97285.84;;;6.04;100.00
49515;BME280;35415;47.870;16.058;2023-04-20T01:47:07;97247.06;;;5.73;100.00
49515;BME280;35415;47.870;16.058;2023-04-20T01:49:36;97199.31;;;5.49;100.00
49515;BME280;35415;47.870;16.058;2023-04-20T01:52:08;97257.34;;;5.82;100.00
49515;BME280;35415;47.870;16.058;2023-04-20T01:54:35;97282.44;;;5.92;100.00
49515;BME280;35415;47.870;16.058;2023-04-20T01:57:07;97249.09;;;5.83;100.00
49515;BME280;35415;47.870;16.058;2023-04-20T01:59:35;97252.00;;;5.82;100.00
49515;BME280;35415;47.870;16.058;2023-04-20T02:02:02;97207.66;;;5.52;100.00
49515;BME280;35415;47.870;16.058;2023-04-20T02:04:32;97267.78;;;5.95;100.00
49515;BME280;35415;47.870;16.058;2023-04-20T02:07:01;97238.25;;;5.73;100.00
49515;BME280;35415;47.870;16.058;2023-04-20T02:09:32;97276.00;;;6.05;100.00
49515;BME280;35415;47.870;16.058;2023-04-20T02:11:59;97246.34;;;5.78;100.00
49515;BME280;35415;47.870;16.058;2023-04-20T02:14:27;97214.41;;;5.55;100.00
49515;BME280;35415;47.870;16.058;2023-04-20T02:16:55;97298.78;;;5.96;100.00
49515;BME280;35415;47.870;16.058;2023-04-20T02:19:23;97275.00;;;5.83;100.00
49515;BME280;35415;47.870;16.058;2023-04-20T02:21:51;97277.91;;;5.93;100.00
49515;BME280;35415;47.870;16.058;2023-04-20T02:24:20;97185.09;;;5.31;100.00
49515;BME280;35415;47.870;16.058;2023-04-20T02:26:47;97231.66;;;5.52;100.00
49515;BME280;35415;47.870;16.058;2023-04-20T02:29:17;97220.34;;;5.45;100.00
49515;BME280;35415;47.870;16.058;2023-04-20T02:31:45;97248.69;;;5.74;100.00
49515;BME280;35415;47.870;16.058;2023-04-20T02:34:12;97220.75;;;5.54;100.00
49515;BME280;35415;47.870;16.058;2023-04-20T02:36:39;97197.38;;;5.32;100.00
49515;BME280;35415;47.870;16.058;2023-04-20T02:39:07;97250.09;;;5.65;100.00
49515;BME280;35415;47.870;16.058;2023-04-20T02:41:37;97244.84;;;5.70;100.00
49515;BME280;35415;47.870;16.058;2023-04-20T02:44:04;97208.94;;;5.50;100.00
49515;BME280;35415;47.870;16.058;2023-04-20T02:46:33;97198.53;;;5.36;100.00
49515;BME280;35415;47.870;16.058;2023-04-20T02:49:01;97157.88;;;5.18;100.00
49515;BME280;35415;47.870;16.058;2023-04-20T02:51:28;97237.78;;;5.64;100.00
49515;BME280;35415;47.870;16.058;2023-04-20T02:53:56;97204.56;;;5.43;100.00
49515;BME280;35415;47.870;16.058;2023-04-20T02:56:23;97221.00;;;5.52;100.00
49515;BME280;35415;47.870;16.058;2023-04-20T02:58:53;97229.22;;;5.62;100.00
49515;BME280;35415;47.870;16.058;2023-04-20T03:01:20;97184.28;;;5.31;100.00
49515;BME280;35415;47.870;16.058;2023-04-20T03:03:47;97178.06;;;5.25;100.00
49515;BME280;35415;47.870;16.058;2023-04-20T03:06:20;97195.78;;;5.31;100.00
49515;BME280;35415;47.870;16.058;2023-04-20T03:08:47;97173.78;;;5.24;100.00
49515;BME280;35415;47.870;16.058;2023-04-20T03:11:14;97215.09;;;5.50;100.00
49515;BME280;35415;47.870;16.058;2023-04-20T03:13:41;97268.50;;;5.79;100.00
49515;BME280;35415;47.870;16.058;2023-04-20T03:16:10;97267.94;;;5.77;100.00
49515;BME280;35415;47.870;16.058;2023-04-20T03:18:40;97183.63;;;5.24;100.00
49515;BME280;35415;47.870;16.058;2023-04-20T03:21:07;97239.34;;;5.49;100.00
49515;BME280;35415;47.870;16.058;2023-04-20T03:23:37;97163.13;;;5.01;100.00
49515;BME280;35415;47.870;16.058;2023-04-20T03:26:04;97187.69;;;5.14;100.00
49515;BME280;35415;47.870;16.058;2023-04-20T03:28:33;97197.06;;;5.17;100.00
49515;BME280;35415;47.870;16.058;2023-04-20T03:31:00;97221.63;;;5.31;100.00
49515;BME280;35415;47.870;16.058;2023-04-20T03:33:32;97274.81;;;5.61;100.00
49515;BME280;35415;47.870;16.058;2023-04-20T03:36:01;97181.22;;;4.99;100.00
49515;BME280;35415;47.870;16.058;2023-04-20T03:38:30;97239.50;;;5.30;100.00
49515;BME280;35415;47.870;16.058;2023-04-20T03:40:58;97216.69;;;5.11;100.00
49515;BME280;35415;47.870;16.058;2023-04-20T03:43:26;97209.72;;;4.98;100.00
49515;BME280;35415;47.870;16.058;2023-04-20T03:45:54;97213.91;;;5.06;100.00
49515;BME280;35415;47.870;16.058;2023-04-20T03:48:21;97180.09;;;4.71;100.00
49515;BME280;35415;47.870;16.058;2023-04-20T03:50:51;97280.66;;;5.34;100.00
49515;BME280;35415;47.870;16.058;2023-04-20T03:53:19;97287.16;;;5.27;100.00
49515;BME280;35415;47.870;16.058;2023-04-20T03:55:48;97217.38;;;4.83;100.00
49515;BME280;35415;47.870;16.058;2023-04-20T03:58:20;97204.66;;;4.73;100.00
49515;BME280;35415;47.870;16.058;2023-04-20T04:00:47;97238.59;;;4.90;100.00
49515;BME280;35415;47.870;16.058;2023-04-20T04:03:17;97268.16;;;5.11;100.00
49515;BME280;35415;47.870;16.058;2023-04-20T04:05:45;97259.47;;;4.93;100.00
49515;BME280;35415;47.870;16.058;2023-04-20T04:08:14;97259.00;;;4.96;100.00
49515;BME280;35415;47.870;16.058;2023-04-20T04:10:41;97275.78;;;4.96;100.00
49515;BME280;35415;47.870;16.058;2023-04-20T04:13:12;97233.94;;;4.62;100.00
49515;BME280;35415;47.870;16.058;2023-04-20T04:15:51;97227.47;;;4.58;100.00
49515;BME280;35415;47.870;16.058;2023-04-20T04:18:22;97246.09;;;4.69;100.00
49515;BME280;35415;47.870;16.058;2023-04-20T04:20:51;97259.22;;;4.82;100.00
49515;BME280;35415;47.870;16.058;2023-04-20T04:23:20;97240.44;;;4.66;100.00
49515;BME280;35415;47.870;16.058;2023-04-20T04:25:47;97294.00;;;4.88;100.00
49515;BME280;35415;47.870;16.058;2023-04-20T04:28:15;97294.69;;;4.95;100.00
49515;BME280;35415;47.870;16.058;2023-04-20T04:30:46;97209.25;;;4.43;100.00
49515;BME280;35415;47.870;16.058;2023-04-20T04:33:13;97216.16;;;4.32;100.00
49515;BME280;35415;47.870;16.058;2023-04-20T04:35:43;97289.22;;;4.78;100.00
49515;BME280;35415;47.870;16.058;2023-04-20T04:38:11;97276.81;;;4.72;100.00
49515;BME280;35415;47.870;16.058;2023-04-20T04:40:43;97236.47;;;4.45;100.00
49515;BME280;35415;47.870;16.058;2023-04-20T04:43:11;97242.72;;;4.39;100.00
49515;BME280;35415;47.870;16.058;2023-04-20T04:45:39;97216.88;;;4.28;100.00
49515;BME280;35415;47.870;16.058;2023-04-20T04:48:07;97303.34;;;4.78;100.00
49515;BME280;35415;47.870;16.058;2023-04-20T04:50:36;97303.34;;;4.78;100.00
49515;BME280;35415;47.870;16.058;2023-04-20T04:53:04;97281.91;;;4.62;100.00
49515;BME280;35415;47.870;16.058;2023-04-20T04:55:31;97303.22;;;4.62;100.00
49515;BME280;35415;47.870;16.058;2023-04-20T04:58:00;97248.03;;;4.39;100.00
49515;BME280;35415;47.870;16.058;2023-04-20T05:00:28;97306.38;;;4.70;100.00
49515;BME280;35415;47.870;16.058;2023-04-20T05:02:57;97315.88;;;4.78;100.00
49515;BME280;35415;47.870;16.058;2023-04-20T05:05:24;97282.69;;;4.62;100.00
49515;BME280;35415;47.870;16.058;2023-04-20T05:07:51;97308.69;;;4.78;100.00
49515;BME280;35415;47.870;16.058;2023-04-20T05:10:19;97283.16;;;4.59;100.00
49515;BME280;35415;47.870;16.058;2023-04-20T05:12:47;97302.44;;;4.73;100.00
49515;BME280;35415;47.870;16.058;2023-04-20T05:15:16;97274.09;;;4.48;100.00
49515;BME280;35415;47.870;16.058;2023-04-20T05:17:46;97227.13;;;4.12;100.00
49515;BME280;35415;47.870;16.058;2023-04-20T05:20:14;97282.25;;;4.53;100.00
49515;BME280;35415;47.870;16.058;2023-04-20T05:22:43;97297.06;;;4.61;100.00
49515;BME280;35415;47.870;16.058;2023-04-20T05:25:12;97298.56;;;4.57;100.00
49515;BME280;35415;47.870;16.058;2023-04-20T05:27:39;97274.31;;;4.47;100.00
49515;BME280;35415;47.870;16.058;2023-04-20T05:30:09;97297.19;;;4.55;100.00
49515;BME280;35415;47.870;16.058;2023-04-20T05:32:41;97339.88;;;4.90;100.00
49515;BME280;35415;47.870;16.058;2023-04-20T05:35:08;97319.34;;;4.78;100.00
49515;BME280;35415;47.870;16.058;2023-04-20T05:37:35;97341.28;;;4.92;100.00
49515;BME280;35415;47.870;16.058;2023-04-20T05:40:03;97320.72;;;4.81;100.00
49515;BME280;35415;47.870;16.058;2023-04-20T05:42:31;97333.75;;;4.89;100.00
49515;BME280;35415;47.870;16.058;2023-04-20T05:44:58;97284.78;;;4.60;100.00
49515;BME280;35415;47.870;16.058;2023-04-20T05:47:25;97340.69;;;5.02;100.00
49515;BME280;35415;47.870;16.058;2023-04-20T05:49:55;97309.97;;;4.88;100.00
49515;BME280;35415;47.870;16.058;2023-04-20T05:52:24;97333.31;;;5.04;100.00
49515;BME280;35415;47.870;16.058;2023-04-20T05:54:52;97336.16;;;5.02;100.00
49515;BME280;35415;47.870;16.058;2023-04-20T05:57:19;97318.44;;;4.96;100.00
49515;BME280;35415;47.870;16.058;2023-04-20T05:59:47;97338.50;;;5.10;100.00
49515;BME280;35415;47.870;16.058;2023-04-20T06:02:16;97335.28;;;5.08;100.00
49515;BME280;35415;47.870;16.058;2023-04-20T06:04:43;97330.50;;;5.10;100.00
49515;BME280;35415;47.870;16.058;2023-04-20T06:07:12;97315.78;;;5.08;100.00
49515;BME280;35415;47.870;16.058;2023-04-20T06:09:40;97329.81;;;5.15;100.00
49515;BME280;35415;47.870;16.058;2023-04-20T06:12:09;97326.34;;;5.14;100.00
49515;BME280;35415;47.870;16.058;2023-04-20T06:14:36;97335.41;;;5.25;100.00
49515;BME280;35415;47.870;16.058;2023-04-20T06:17:06;97304.09;;;5.09;100.00
49515;BME280;35415;47.870;16.058;2023-04-20T06:19:34;97298.53;;;5.10;100.00
49515;BME280;35415;47.870;16.058;2023-04-20T06:22:05;97252.97;;;4.89;100.00
49515;BME280;35415;47.870;16.058;2023-04-20T06:24:35;97319.97;;;5.39;100.00
49515;BME280;35415;47.870;16.058;2023-04-20T06:27:07;97330.75;;;5.56;100.00
49515;BME280;35415;47.870;16.058;2023-04-20T06:29:34;97320.19;;;5.49;100.00
49515;BME280;35415;47.870;16.058;2023-04-20T06:32:02;97301.50;;;5.49;100.00
49515;BME280;35415;47.870;16.058;2023-04-20T06:34:32;97327.94;;;5.74;100.00
49515;BME280;35415;47.870;16.058;2023-04-20T06:36:59;97336.84;;;5.80;100.00
49515;BME280;35415;47.870;16.058;2023-04-20T06:39:26;97336.47;;;5.88;100.00
49515;BME280;35415;47.870;16.058;2023-04-20T06:41:55;97340.22;;;5.98;100.00
49515;BME280;35415;47.870;16.058;2023-04-20T06:44:23;97335.31;;;6.07;100.00
49515;BME280;35415;47.870;16.058;2023-04-20T06:46:50;97310.59;;;6.00;100.00
49515;BME280;35415;47.870;16.058;2023-04-20T06:49:18;97308.06;;;6.05;100.00
49515;BME280;35415;47.870;16.058;2023-04-20T06:51:45;97330.28;;;6.22;100.00
49515;BME280;35415;47.870;16.058;2023-04-20T06:54:12;97342.41;;;6.42;100.00
49515;BME280;35415;47.870;16.058;2023-04-20T06:56:39;97322.53;;;6.38;100.00
49515;BME280;35415;47.870;16.058;2023-04-20T06:59:08;97322.16;;;6.46;100.00
49515;BME280;35415;47.870;16.058;2023-04-20T07:01:35;97336.44;;;6.68;100.00
49515;BME280;35415;47.870;16.058;2023-04-20T07:04:04;97335.81;;;6.78;100.00
49515;BME280;35415;47.870;16.058;2023-04-20T07:06:31;97307.84;;;6.69;100.00
49515;BME280;35415;47.870;16.058;2023-04-20T07:08:58;97299.13;;;6.73;100.00
49515;BME280;35415;47.870;16.058;2023-04-20T07:11:28;97326.28;;;6.99;100.00
49515;BME280;35415;47.870;16.058;2023-04-20T07:13:55;97289.41;;;6.84;100.00
49515;BME280;35415;47.870;16.058;2023-04-20T07:16:24;97312.03;;;7.10;100.00
49515;BME280;35415;47.870;16.058;2023-04-20T07:18:51;97235.53;;;6.75;100.00
49515;BME280;35415;47.870;16.058;2023-04-20T07:21:18;97230.81;;;6.82;100.00
49515;BME280;35415;47.870;16.058;2023-04-20T07:23:46;97305.50;;;7.39;100.00
49515;BME280;35415;47.870;16.058;2023-04-20T07:26:15;97268.53;;;7.19;100.00
49515;BME280;35415;47.870;16.058;2023-04-20T07:28:44;97283.09;;;7.45;100.00
49515;BME280;35415;47.870;16.058;2023-04-20T07:31:11;97318.56;;;7.74;100.00
49515;BME280;35415;47.870;16.058;2023-04-20T07:33:40;97316.31;;;7.88;100.00
49515;BME280;35415;47.870;16.058;2023-04-20T07:36:11;97321.81;;;7.98;100.00
49515;BME280;35415;47.870;16.058;2023-04-20T07:38:38;97317.44;;;8.14;100.00
49515;BME280;35415;47.870;16.058;2023-04-20T07:41:07;97310.59;;;8.23;100.00
49515;BME280;35415;47.870;16.058;2023-04-20T07:43:36;97310.53;;;8.40;100.00
49515;BME280;35415;47.870;16.058;2023-04-20T07:46:03;97305.47;;;8.43;100.00
49515;BME280;35415;47.870;16.058;2023-04-20T07:48:32;97307.28;;;8.65;100.00
49515;BME280;35415;47.870;16.058;2023-04-20T07:51:01;97313.25;;;8.72;100.00
49515;BME280;35415;47.870;16.058;2023-04-20T07:53:29;97289.91;;;8.72;100.00
49515;BME280;35415;47.870;16.058;2023-04-20T07:55:56;97310.53;;;8.99;99.45
49515;BME280;35415;47.870;16.058;2023-04-20T07:58:23;97286.09;;;8.95;100.00
49515;BME280;35415;47.870;16.058;2023-04-20T08:00:54;97310.75;;;9.24;98.69
49515;BME280;35415;47.870;16.058;2023-04-20T08:03:21;97319.97;;;9.39;99.42
49515;BME280;35415;47.870;16.058;2023-04-20T08:05:48;97312.75;;;9.44;99.20
49515;BME280;35415;47.870;16.058;2023-04-20T08:08:17;97316.34;;;9.60;97.25
49515;BME280;35415;47.870;16.058;2023-04-20T08:10:44;97259.06;;;9.44;96.69
49515;BME280;35415;47.870;16.058;2023-04-20T08:13:12;97300.63;;;9.84;97.09
49515;BME280;35415;47.870;16.058;2023-04-20T08:15:39;97310.09;;;10.02;97.71
49515;BME280;35415;47.870;16.058;2023-04-20T08:18:09;97319.84;;;10.13;95.38
49515;BME280;35415;47.870;16.058;2023-04-20T08:20:36;97298.38;;;10.23;95.45
49515;BME280;35415;47.870;16.058;2023-04-20T08:23:03;97277.66;;;10.18;93.96
49515;BME280;35415;47.870;16.058;2023-04-20T08:25:32;97282.56;;;10.37;91.88
49515;BME280;35415;47.870;16.058;2023-04-20T08:27:59;97292.00;;;10.54;93.36
49515;BME280;35415;47.870;16.058;2023-04-20T08:30:26;97301.19;;;10.64;94.23
49515;BME280;35415;47.870;16.058;2023-04-20T08:32:57;97310.34;;;10.78;93.75
49515;BME280;35415;47.870;16.058;2023-04-20T08:35:24;97301.75;;;10.86;92.15
49515;BME280;35415;47.870;16.058;2023-04-20T08:37:52;97298.25;;;10.96;92.01
49515;BME280;35415;47.870;16.058;2023-04-20T08:40:19;97297.16;;;11.07;92.67
49515;BME280;35415;47.870;16.058;2023-04-20T08:42:50;97295.28;;;11.18;92.79
49515;BME280;35415;47.870;16.058;2023-04-20T08:45:18;97278.31;;;11.17;92.13
49515;BME280;35415;47.870;16.058;2023-04-20T08:47:45;97265.13;;;11.26;92.77
49515;BME280;35415;47.870;16.058;2023-04-20T08:50:15;97263.78;;;11.28;92.03
49515;BME280;35415;47.870;16.058;2023-04-20T08:52:42;97284.47;;;11.53;91.51
49515;BME280;35415;47.870;16.058;2023-04-20T08:55:14;97280.66;;;11.64;92.13
49515;BME280;35415;47.870;16.058;2023-04-20T08:57:46;97223.09;;;11.45;91.79
49515;BME280;35415;47.870;16.058;2023-04-20T09:00:19;97287.88;;;11.94;91.58
49515;BME280;35415;47.870;16.058;2023-04-20T09:02:52;97288.06;;;12.08;91.02
49515;BME280;35415;47.870;16.058;2023-04-20T09:05:30;97278.06;;;12.19;92.95
49515;BME280;35415;47.870;16.058;2023-04-20T09:07:58;97227.16;;;12.07;91.92
49515;BME280;35415;47.870;16.058;2023-04-20T09:10:39;97259.59;;;12.41;92.49
49515;BME280;35415;47.870;16.058;2023-04-20T09:16:12;97271.75;;;12.83;89.54
49515;BME280;35415;47.870;16.058;2023-04-20T09:18:39;97217.66;;;12.59;89.47
49515;BME280;35415;47.870;16.058;2023-04-20T09:21:18;97206.50;;;12.71;88.14
49515;BME280;35415;47.870;16.058;2023-04-20T09:24:00;97256.34;;;13.17;89.71
49515;BME280;35415;47.870;16.058;2023-04-20T09:26:31;97266.41;;;13.41;87.97
49515;BME280;35415;47.870;16.058;2023-04-20T09:28:59;97271.66;;;13.56;87.31
49515;BME280;35415;47.870;16.058;2023-04-20T09:31:28;97239.56;;;13.49;83.88
49515;BME280;35415;47.870;16.058;2023-04-20T09:33:57;97244.09;;;13.54;85.18
49515;BME280;35415;47.870;16.058;2023-04-20T09:36:34;97268.53;;;13.92;84.93
49515;BME280;35415;47.870;16.058;2023-04-20T09:39:05;97281.59;;;14.08;85.21
49515;BME280;35415;47.870;16.058;2023-04-20T09:41:34;97243.41;;;13.91;84.16
49515;BME280;35415;47.870;16.058;2023-04-20T09:44:02;97283.59;;;14.22;83.66
49515;BME280;35415;47.870;16.058;2023-04-20T09:46:44;97227.25;;;13.86;81.64
49515;BME280;35415;47.870;16.058;2023-04-20T09:49:13;97207.63;;;13.75;81.76
49515;BME280;35415;47.870;16.058;2023-04-20T09:51:42;97275.47;;;14.22;80.40
49515;BME280;35415;47.870;16.058;2023-04-20T09:54:13;97286.41;;;14.35;81.66
49515;BME280;35415;47.870;16.058;2023-04-20T09:56:41;97285.53;;;14.40;82.74
49515;BME280;35415;47.870;16.058;2023-04-20T09:59:09;97247.13;;;14.19;81.94
49515;BME280;35415;47.870;16.058;2023-04-20T10:04:34;97282.22;;;14.67;81.79
49515;BME280;35415;47.870;16.058;2023-04-20T10:07:07;97273.88;;;14.82;86.10
49515;BME280;35415;47.870;16.058;2023-04-20T10:09:34;97267.03;;;14.85;80.13
49515;BME280;35415;47.870;16.058;2023-04-20T10:12:06;97213.81;;;14.61;81.21
49515;BME280;35415;47.870;16.058;2023-04-20T10:14:35;97237.66;;;14.78;78.20
49515;BME280;35415;47.870;16.058;2023-04-20T10:17:04;97270.13;;;15.11;77.91
49515;BME280;35415;47.870;16.058;2023-04-20T10:19:43;97236.41;;;15.03;79.87
49515;BME280;35415;47.870;16.058;2023-04-20T10:22:23;97244.50;;;15.22;77.95
49515;BME280;35415;47.870;16.058;2023-04-20T10:24:51;97194.19;;;15.02;77.44
49515;BME280;35415;47.870;16.058;2023-04-20T10:27:19;97259.22;;;15.48;75.89
49515;BME280;35415;47.870;16.058;2023-04-20T10:29:50;97276.72;;;15.70;75.34
49515;BME280;35415;47.870;16.058;2023-04-20T10:32:22;97221.63;;;15.42;76.39
49515;BME280;35415;47.870;16.058;2023-04-20T10:35:05;97215.63;;;15.58;77.76
49515;BME280;35415;47.870;16.058;2023-04-20T10:37:47;97208.34;;;15.73;77.53
49515;BME280;35415;47.870;16.058;2023-04-20T10:43:18;97253.50;;;16.32;73.46
49515;BME280;35415;47.870;16.058;2023-04-20T10:45:47;97248.31;;;16.44;75.04
49515;BME280;35415;47.870;16.058;2023-04-20T10:48:16;97238.97;;;16.50;75.12
49515;BME280;35415;47.870;16.058;2023-04-20T10:50:44;97240.84;;;16.64;75.04
49515;BME280;35415;47.870;16.058;2023-04-20T10:53:19;97226.69;;;16.67;76.06
49515;BME280;35415;47.870;16.058;2023-04-20T10:55:57;97182.38;;;16.44;75.54
49515;BME280;35415;47.870;16.058;2023-04-20T10:58:25;97226.19;;;16.87;71.05
49515;BME280;35415;47.870;16.058;2023-04-20T11:00:59;97158.63;;;16.49;71.79
49515;BME280;35415;47.870;16.058;2023-04-20T11:03:28;97164.50;;;16.65;69.68
49515;BME280;35415;47.870;16.058;2023-04-20T11:05:59;97221.44;;;17.15;71.29
49515;BME280;35415;47.870;16.058;2023-04-20T11:08:36;97193.47;;;17.14;72.38
49515;BME280;35415;47.870;16.058;2023-04-20T11:11:17;97190.59;;;17.20;69.97
49515;BME280;35415;47.870;16.058;2023-04-20T11:13:45;97208.28;;;17.39;69.70
49515;BME280;35415;47.870;16.058;2023-04-20T11:16:16;97206.22;;;17.45;67.79
49515;BME280;35415;47.870;16.058;2023-04-20T11:18:51;97150.94;;;17.19;69.80
49515;BME280;35415;47.870;16.058;2023-04-20T11:21:22;97210.00;;;17.66;70.76
49515;BME280;35415;47.870;16.058;2023-04-20T11:23:50;97149.75;;;17.42;70.49
49515;BME280;35415;47.870;16.058;2023-04-20T11:26:18;97225.78;;;17.95;69.02
49515;BME280;35415;47.870;16.058;2023-04-20T11:28:52;97207.25;;;17.97;68.44
49515;BME280;35415;47.870;16.058;2023-04-20T11:31:21;97143.56;;;17.59;66.73
49515;BME280;35415;47.870;16.058;2023-04-20T11:33:51;97147.63;;;17.70;69.12
49515;BME280;35415;47.870;16.058;2023-04-20T11:36:27;97223.78;;;18.18;68.61
49515;BME280;35415;47.870;16.058;2023-04-20T11:39:06;97180.66;;;17.94;68.86
49515;BME280;35415;47.870;16.058;2023-04-20T11:41:45;97146.53;;;17.80;68.62
49515;BME280;35415;47.870;16.058;2023-04-20T11:44:12;97162.88;;;17.88;64.99
49515;BME280;35415;47.870;16.058;2023-04-20T11:46:42;97223.63;;;18.23;64.71
49515;BME280;35415;47.870;16.058;2023-04-20T11:49:10;97193.50;;;18.02;63.51
49515;BME280;35415;47.870;16.058;2023-04-20T11:51:39;97167.53;;;17.88;63.70
49515;BME280;35415;47.870;16.058;2023-04-20T11:54:08;97173.78;;;17.97;62.69
49515;BME280;35415;47.870;16.058;2023-04-20T11:56:35;97144.13;;;17.78;61.45
49515;BME280;35415;47.870;16.058;2023-04-20T11:59:03;97199.63;;;18.17;62.09
49515;BME280;35415;47.870;16.058;2023-04-20T12:01:34;97131.47;;;17.73;62.52
49515;BME280;35415;47.870;16.058;2023-04-20T12:04:02;97195.59;;;18.23;62.93
49515;BME280;35415;47.870;16.058;2023-04-20T12:06:31;97115.66;;;17.84;61.77
49515;BME280;35415;47.870;16.058;2023-04-20T12:09:02;97205.56;;;18.53;61.08
49515;BME280;35415;47.870;16.058;2023-04-20T12:11:38;97173.19;;;18.34;62.42
49515;BME280;35415;47.870;16.058;2023-04-20T12:14:06;97179.94;;;18.37;61.04
49515;BME280;35415;47.870;16.058;2023-04-20T12:16:33;97193.06;;;18.44;59.99
49515;BME280;35415;47.870;16.058;2023-04-20T12:19:02;97155.25;;;18.16;57.94
49515;BME280;35415;47.870;16.058;2023-04-20T12:21:32;97172.22;;;18.30;58.04
49515;BME280;35415;47.870;16.058;2023-04-20T12:24:05;97179.28;;;18.40;59.04
49515;BME280;35415;47.870;16.058;2023-04-20T12:26:33;97212.63;;;18.63;55.57
49515;BME280;35415;47.870;16.058;2023-04-20T12:29:01;97179.91;;;18.46;53.40
49515;BME280;35415;47.870;16.058;2023-04-20T12:31:28;97148.69;;;18.34;55.11
49515;BME280;35415;47.870;16.058;2023-04-20T12:34:02;97138.75;;;18.39;55.13
49515;BME280;35415;47.870;16.058;2023-04-20T12:36:33;97156.38;;;18.58;52.73
49515;BME280;35415;47.870;16.058;2023-04-20T12:39:01;97147.25;;;18.63;52.35
49515;BME280;35415;47.870;16.058;2023-04-20T12:41:31;97170.31;;;18.74;48.88
49515;BME280;35415;47.870;16.058;2023-04-20T12:43:59;97165.50;;;18.80;49.53
49515;BME280;35415;47.870;16.058;2023-04-20T12:46:26;97170.81;;;18.85;48.76
49515;BME280;35415;47.870;16.058;2023-04-20T12:48:55;97144.84;;;18.70;49.04
49515;BME280;35415;47.870;16.058;2023-04-20T12:51:22;97181.81;;;18.97;48.71
49515;BME280;35415;47.870;16.058;2023-04-20T12:53:50;97173.97;;;19.04;51.00
49515;BME280;35415;47.870;16.058;2023-04-20T12:56:19;97143.22;;;18.86;50.92
49515;BME280;35415;47.870;16.058;2023-04-20T12:58:51;97162.09;;;19.09;50.77
49515;BME280;35415;47.870;16.058;2023-04-20T13:01:19;97177.97;;;19.15;48.72
49515;BME280;35415;47.870;16.058;2023-04-20T13:03:49;97101.41;;;18.74;49.30
49515;BME280;35415;47.870;16.058;2023-04-20T13:06:16;97148.78;;;19.07;49.67
49515;BME280;35415;47.870;16.058;2023-04-20T13:08:44;97113.09;;;18.83;51.18
49515;BME280;35415;47.870;16.058;2023-04-20T13:11:11;97153.91;;;19.17;49.81